createdAt,value
2022-12-29T00:01:30.709Z,54.34
2022-12-29T00:04:18.650Z,54.58
2022-12-29T00:07:02.100Z,54.60
2022-12-29T00:09:44.392Z,54.41
2022-12-29T00:13:05.046Z,54.57
2022-12-29T00:15:41.988Z,54.71
2022-12-29T00:18:16.531Z,54.65
2022-12-29T00:21:35.722Z,54.62
2022-12-29T00:24:28.936Z,55.14
2022-12-29T00:27:21.303Z,55.06
2022-12-29T00:30:17.165Z,55.24
2022-12-29T00:33:21.787Z,55.09
2022-12-29T00:36:07.523Z,54.94
2022-12-29T00:39:03.693Z,54.75
2022-12-29T00:41:53.532Z,54.78
2022-12-29T00:44:27.090Z,55.14
2022-12-29T00:47:14.495Z,55.21
2022-12-29T00:49:54.313Z,55.06
2022-12-29T00:52:44.048Z,54.86
2022-12-29T00:55:15.338Z,55.00
2022-12-29T00:57:47.500Z,55.08
2022-12-29T01:03:13.305Z,54.88
2022-12-29T01:11:17.591Z,55.33
2022-12-29T01:13:52.227Z,55.53
2022-12-29T01:16:36.971Z,55.36
2022-12-29T01:22:23.945Z,55.08
2022-12-29T01:24:59.782Z,55.09
2022-12-29T01:27:34.022Z,55.20
2022-12-29T01:30:05.288Z,55.37
2022-12-29T01:32:56.069Z,55.08
2022-12-29T01:38:46.464Z,55.01
2022-12-29T01:41:23.036Z,55.10
2022-12-29T01:43:58.605Z,55.13
2022-12-29T01:46:41.335Z,55.00
2022-12-29T01:49:12.460Z,55.18
2022-12-29T01:51:52.585Z,55.09
2022-12-29T01:54:30.248Z,54.77
2022-12-29T01:57:07.704Z,54.77
2022-12-29T01:59:41.852Z,54.59
2022-12-29T02:02:17.312Z,54.54
2022-12-29T02:04:51.265Z,54.72
2022-12-29T02:07:23.979Z,54.37
2022-12-29T02:09:57.351Z,54.12
2022-12-29T02:12:30.964Z,53.93
2022-12-29T02:15:10.322Z,53.96
2022-12-29T02:17:47.777Z,53.50
2022-12-29T02:23:37.868Z,53.14
2022-12-29T02:26:27.147Z,53.14
2022-12-29T02:29:00.340Z,52.96
2022-12-29T02:31:49.853Z,53.11
2022-12-29T02:34:43.448Z,53.00
2022-12-29T02:37:40.229Z,52.93
2022-12-29T02:40:32.989Z,52.87
2022-12-29T02:43:31.508Z,53.03
2022-12-29T02:49:05.439Z,52.88
2022-12-29T02:51:48.738Z,52.59
2022-12-29T02:54:41.047Z,52.78
2022-12-29T02:57:26.953Z,52.87
2022-12-29T03:00:56.262Z,52.60
2022-12-29T03:03:30.368Z,52.46
2022-12-29T03:06:18.504Z,53.19
2022-12-29T03:12:26.274Z,52.98
2022-12-29T03:15:41.044Z,52.72
2022-12-29T03:18:20.880Z,52.55
2022-12-29T03:21:22.756Z,52.73
2022-12-29T03:23:55.754Z,52.87
2022-12-29T03:26:38.106Z,53.18
2022-12-29T03:29:12.528Z,53.22
2022-12-29T03:31:42.077Z,52.86
2022-12-29T03:34:11.940Z,52.73
2022-12-29T03:36:49.681Z,53.13
2022-12-29T03:39:22.217Z,52.99
2022-12-29T03:41:58.618Z,53.01
2022-12-29T03:44:34.797Z,52.92
2022-12-29T03:47:10.076Z,53.13
2022-12-29T03:49:52.604Z,53.26
2022-12-29T03:52:29.677Z,53.29
2022-12-29T04:00:21.556Z,52.97
2022-12-29T04:03:00.174Z,53.15
2022-12-29T04:05:33.080Z,53.23
2022-12-29T04:08:01.716Z,53.73
2022-12-29T04:10:40.872Z,53.20
2022-12-29T04:13:19.764Z,53.33
2022-12-29T04:15:55.614Z,53.16
2022-12-29T04:18:34.224Z,53.42
2022-12-29T04:21:10.449Z,53.15
2022-12-29T04:23:54.704Z,53.13
2022-12-29T04:26:31.581Z,52.93
2022-12-29T04:29:16.798Z,52.75
2022-12-29T04:32:13.542Z,52.82
2022-12-29T04:34:52.086Z,53.03
2022-12-29T04:37:38.868Z,52.55
2022-12-29T04:40:25.081Z,52.60
2022-12-29T04:42:57.578Z,52.72
2022-12-29T04:45:37.400Z,52.82
2022-12-29T04:48:28.325Z,52.62
2022-12-29T04:51:25.175Z,52.39
2022-12-29T04:54:10.191Z,52.74
2022-12-29T04:56:52.251Z,52.82
2022-12-29T04:59:24.448Z,52.75
2022-12-29T05:02:11.925Z,52.59
2022-12-29T05:04:48.411Z,52.65
2022-12-29T05:07:24.188Z,52.55
2022-12-29T05:10:04.365Z,52.49
2022-12-29T05:12:47.548Z,52.72
2022-12-29T05:15:23.521Z,52.64
2022-12-29T05:17:50.975Z,52.37
2022-12-29T05:20:22.827Z,52.84
2022-12-29T05:22:57.034Z,52.53
2022-12-29T05:25:33.551Z,52.66
2022-12-29T05:28:21.913Z,53.27
2022-12-29T05:30:52.082Z,52.86
2022-12-29T05:33:23.590Z,52.70
2022-12-29T05:35:57.430Z,52.89
2022-12-29T05:38:27.432Z,52.68
2022-12-29T05:41:00.465Z,53.00
2022-12-29T05:44:08.330Z,53.23
2022-12-29T05:47:06.411Z,52.54
2022-12-29T05:50:04.889Z,52.66
2022-12-29T05:52:57.478Z,52.58
2022-12-29T05:55:54.727Z,52.72
2022-12-29T05:58:29.405Z,53.05
2022-12-29T06:01:01.496Z,52.29
2022-12-29T06:03:30.996Z,52.40
2022-12-29T06:06:05.253Z,52.36
2022-12-29T06:08:46.035Z,52.34
2022-12-29T06:11:16.111Z,52.03
2022-12-29T06:13:55.361Z,51.87
2022-12-29T06:16:34.748Z,53.00
2022-12-29T06:19:13.385Z,51.55
2022-12-29T06:21:49.244Z,52.21
2022-12-29T06:24:20.593Z,51.77
2022-12-29T06:26:55.111Z,52.12
2022-12-29T06:29:29.026Z,52.97
2022-12-29T06:32:07.169Z,51.48
2022-12-29T06:34:48.958Z,52.23
2022-12-29T06:37:31.819Z,51.40
2022-12-29T06:40:06.592Z,51.57
2022-12-29T06:42:53.702Z,52.51
2022-12-29T06:45:45.284Z,51.21
2022-12-29T06:48:23.903Z,51.15
2022-12-29T06:50:51.397Z,53.00
2022-12-29T06:53:18.877Z,51.11
2022-12-29T06:55:46.145Z,50.82
2022-12-29T06:58:22.979Z,51.02
2022-12-29T07:00:59.374Z,51.40
2022-12-29T07:03:46.998Z,51.52
2022-12-29T07:06:30.316Z,51.57
2022-12-29T07:09:01.832Z,51.58
2022-12-29T07:11:30.246Z,50.74
2022-12-29T07:14:04.497Z,50.75
2022-12-29T07:16:35.747Z,52.44
2022-12-29T07:19:05.626Z,52.50
2022-12-29T07:21:32.779Z,51.71
2022-12-29T07:23:59.896Z,52.13
2022-12-29T07:26:30.340Z,52.31
2022-12-29T07:29:04.481Z,51.39
2022-12-29T07:31:31.908Z,51.19
2022-12-29T07:33:58.999Z,50.80
2022-12-29T07:36:32.406Z,51.50
2022-12-29T07:39:01.369Z,50.13
2022-12-29T07:41:28.420Z,50.08
2022-12-29T07:43:55.633Z,49.92
2022-12-29T07:46:53.680Z,49.51
2022-12-29T07:49:23.936Z,49.51
2022-12-29T07:51:51.096Z,49.47
2022-12-29T07:54:21.118Z,49.33
2022-12-29T07:56:50.842Z,49.40
2022-12-29T07:59:20.761Z,48.95
2022-12-29T08:01:49.401Z,48.88
2022-12-29T08:04:17.044Z,49.24
2022-12-29T08:06:46.709Z,48.65
2022-12-29T08:09:21.677Z,49.04
2022-12-29T08:11:50.118Z,48.98
2022-12-29T08:14:17.282Z,48.67
2022-12-29T08:16:46.562Z,48.96
2022-12-29T08:19:13.696Z,48.76
2022-12-29T08:21:41.364Z,49.19
2022-12-29T08:24:18.684Z,48.81
2022-12-29T08:26:48.179Z,48.32
2022-12-29T08:29:18.596Z,48.57
2022-12-29T08:31:46.107Z,48.59
2022-12-29T08:34:13.225Z,48.12
2022-12-29T08:36:40.765Z,48.22
2022-12-29T08:39:07.901Z,48.36
2022-12-29T08:41:34.947Z,48.08
2022-12-29T08:44:02.035Z,48.20
2022-12-29T08:46:29.264Z,47.14
2022-12-29T08:48:58.891Z,47.68
2022-12-29T08:51:25.986Z,47.99
2022-12-29T08:53:56.033Z,47.49
2022-12-29T08:56:24.991Z,49.00
2022-12-29T08:58:56.125Z,48.12
2022-12-29T09:01:24.592Z,47.58
2022-12-29T09:06:41.592Z,47.32
2022-12-29T09:09:08.853Z,46.81
2022-12-29T09:11:35.887Z,46.67
2022-12-29T09:14:02.896Z,46.08
2022-12-29T09:16:29.997Z,46.20
2022-12-29T09:18:57.040Z,46.29
2022-12-29T09:21:24.056Z,46.14
2022-12-29T09:23:53.794Z,45.55
2022-12-29T09:26:23.605Z,44.68
2022-12-29T09:28:53.712Z,44.28
2022-12-29T09:31:21.391Z,44.87
2022-12-29T09:33:48.525Z,44.83
2022-12-29T09:36:16.863Z,43.82
2022-12-29T09:38:48.585Z,43.59
2022-12-29T09:41:19.359Z,42.85
2022-12-29T09:44:08.778Z,42.60
2022-12-29T09:46:40.830Z,43.82
2022-12-29T09:49:26.690Z,43.34
2022-12-29T09:52:01.070Z,42.52
2022-12-29T09:54:28.107Z,42.57
2022-12-29T09:56:56.820Z,43.04
2022-12-29T09:59:28.175Z,43.52
2022-12-29T10:01:59.890Z,42.54
2022-12-29T10:04:28.832Z,41.68
2022-12-29T10:10:05.145Z,38.53
2022-12-29T10:12:35.232Z,38.84
2022-12-29T10:15:21.151Z,38.50
2022-12-29T10:17:48.300Z,38.54
2022-12-29T10:20:27.722Z,37.52
2022-12-29T10:22:54.765Z,37.48
2022-12-29T10:25:31.105Z,36.97
2022-12-29T10:28:03.391Z,35.43
2022-12-29T10:30:31.734Z,34.64
2022-12-29T10:33:02.855Z,34.31
2022-12-29T10:35:40.301Z,33.46
2022-12-29T10:38:19.771Z,32.73
2022-12-29T10:40:50.447Z,32.00
2022-12-29T10:43:26.898Z,31.15
2022-12-29T10:46:00.212Z,29.66
2022-12-29T10:48:35.646Z,28.95
2022-12-29T10:51:04.416Z,28.95
2022-12-29T10:53:43.615Z,28.48
2022-12-29T10:56:23.300Z,27.52
2022-12-29T10:58:51.377Z,26.95
2022-12-29T11:01:19.722Z,26.41
2022-12-29T11:04:06.256Z,26.04
2022-12-29T11:06:35.189Z,25.35
2022-12-29T11:09:16.180Z,24.75
2022-12-29T11:11:44.585Z,24.31
2022-12-29T11:14:14.843Z,23.80
2022-12-29T11:16:42.945Z,23.31
2022-12-29T11:19:30.220Z,22.54
2022-12-29T11:22:12.911Z,21.70
2022-12-29T11:24:45.972Z,22.10
2022-12-29T11:27:17.456Z,21.86
2022-12-29T11:29:44.919Z,21.51
2022-12-29T11:32:13.326Z,21.20
2022-12-29T11:34:40.386Z,21.36
2022-12-29T11:37:17.077Z,21.37
2022-12-29T11:39:46.952Z,21.75
2022-12-29T11:42:25.004Z,23.22
2022-12-29T11:44:55.308Z,23.57
2022-12-29T11:47:33.300Z,24.08
2022-12-29T11:50:02.327Z,24.50
2022-12-29T11:52:34.329Z,23.61
2022-12-29T11:55:02.581Z,23.35
2022-12-29T11:57:30.163Z,22.15
2022-12-29T11:59:57.718Z,21.50
2022-12-29T12:02:45.747Z,21.61
2022-12-29T12:05:17.168Z,21.33
2022-12-29T12:07:46.979Z,20.90
2022-12-29T12:10:20.857Z,20.83
2022-12-29T12:13:20.415Z,21.33
2022-12-29T12:15:59.148Z,20.65
2022-12-29T12:18:32.679Z,20.59
2022-12-29T12:21:19.993Z,20.26
2022-12-29T12:24:05.315Z,20.07
2022-12-29T12:29:52.239Z,20.40
2022-12-29T12:32:26.432Z,20.82
2022-12-29T12:34:53.544Z,21.63
2022-12-29T12:37:35.400Z,21.19
2022-12-29T12:40:17.323Z,22.04
2022-12-29T12:42:44.395Z,21.95
2022-12-29T12:45:35.776Z,21.37
2022-12-29T12:48:18.750Z,22.86
2022-12-29T12:50:51.734Z,22.44
2022-12-29T12:53:30.554Z,24.64
2022-12-29T12:56:17.986Z,24.56
2022-12-29T12:58:55.963Z,23.84
2022-12-29T13:01:42.901Z,23.68
2022-12-29T13:04:31.879Z,23.01
2022-12-29T13:07:23.185Z,22.82
2022-12-29T13:10:02.842Z,22.11
2022-12-29T13:12:37.609Z,21.57
2022-12-29T13:15:32.801Z,21.16
2022-12-29T13:18:20.307Z,21.51
2022-12-29T13:20:51.116Z,21.48
2022-12-29T13:23:33.777Z,21.59
2022-12-29T13:26:00.996Z,21.92
2022-12-29T13:28:33.233Z,21.78
2022-12-29T13:31:06.626Z,23.72
2022-12-29T13:33:36.647Z,23.45
2022-12-29T13:36:15.578Z,24.83
2022-12-29T13:38:48.679Z,25.50
2022-12-29T13:41:29.044Z,27.10
2022-12-29T13:43:57.169Z,28.88
2022-12-29T13:46:29.759Z,29.21
2022-12-29T13:49:02.929Z,29.16
2022-12-29T13:51:30.493Z,29.52
2022-12-29T13:54:26.195Z,28.72
2022-12-29T13:57:03.965Z,27.77
2022-12-29T14:00:03.018Z,28.00
2022-12-29T14:02:38.948Z,28.74
2022-12-29T14:05:37.336Z,29.09
2022-12-29T14:08:17.091Z,29.05
2022-12-29T14:10:51.513Z,28.97
2022-12-29T14:13:20.490Z,29.35
2022-12-29T14:15:53.121Z,29.36
2022-12-29T14:18:22.652Z,29.82
2022-12-29T14:20:58.634Z,31.13
2022-12-29T14:23:37.025Z,31.97
2022-12-29T14:26:07.931Z,34.58
2022-12-29T14:28:38.282Z,37.06
2022-12-29T14:31:28.042Z,37.56
2022-12-29T14:34:07.119Z,37.49
2022-12-29T14:36:34.288Z,37.93
2022-12-29T14:39:01.650Z,36.55
2022-12-29T14:41:38.323Z,37.12
2022-12-29T14:44:08.382Z,36.99
2022-12-29T14:46:50.954Z,35.20
2022-12-29T14:49:35.710Z,33.69
2022-12-29T14:52:24.251Z,32.88
2022-12-29T14:55:06.088Z,33.11
2022-12-29T14:57:41.212Z,32.77
2022-12-29T15:00:21.384Z,32.69
2022-12-29T15:02:53.417Z,32.65
2022-12-29T15:05:53.313Z,33.27
2022-12-29T15:08:26.148Z,33.06
2022-12-29T15:11:02.490Z,32.99
2022-12-29T15:13:40.923Z,32.94
2022-12-29T15:16:22.415Z,33.25
2022-12-29T15:18:49.526Z,33.58
2022-12-29T15:21:17.390Z,33.39
2022-12-29T15:23:50.040Z,33.49
2022-12-29T15:26:25.416Z,33.79
2022-12-29T15:28:53.600Z,34.13
2022-12-29T15:31:29.408Z,34.15
2022-12-29T15:34:09.250Z,34.70
2022-12-29T15:36:40.738Z,34.68
2022-12-29T15:39:36.873Z,34.62
2022-12-29T15:42:08.224Z,34.64
2022-12-29T15:44:42.931Z,34.80
2022-12-29T15:47:23.908Z,35.31
2022-12-29T15:49:59.438Z,35.03
2022-12-29T15:52:32.373Z,35.11
2022-12-29T15:54:59.838Z,35.12
2022-12-29T15:57:31.336Z,35.06
2022-12-29T16:00:26.902Z,35.36
2022-12-29T16:02:55.250Z,34.89
2022-12-29T16:05:24.775Z,35.04
2022-12-29T16:07:58.990Z,34.87
2022-12-29T16:10:34.876Z,35.24
2022-12-29T16:13:24.793Z,35.18
2022-12-29T16:15:53.379Z,35.53
2022-12-29T16:18:31.174Z,35.43
2022-12-29T16:20:58.665Z,35.36
2022-12-29T16:23:27.435Z,35.29
2022-12-29T16:26:00.950Z,35.44
2022-12-29T16:28:51.339Z,35.60
2022-12-29T16:31:39.749Z,35.41
2022-12-29T16:34:33.283Z,36.42
2022-12-29T16:37:00.838Z,36.79
2022-12-29T16:39:35.425Z,38.08
2022-12-29T16:45:34.314Z,38.27
2022-12-29T16:48:10.272Z,38.71
2022-12-29T16:50:44.440Z,38.28
2022-12-29T16:53:23.195Z,38.12
2022-12-29T16:55:56.414Z,38.35
2022-12-29T16:58:32.886Z,38.66
2022-12-29T17:01:20.310Z,39.64
2022-12-29T17:04:11.363Z,38.92
2022-12-29T17:06:44.691Z,38.86
2022-12-29T17:09:20.724Z,38.57
2022-12-29T17:12:00.471Z,38.63
2022-12-29T17:14:37.431Z,38.69
2022-12-29T17:17:14.234Z,38.21
2022-12-29T17:19:44.384Z,38.28
2022-12-29T17:22:31.964Z,38.45
2022-12-29T17:25:05.985Z,39.82
2022-12-29T17:27:47.647Z,39.94
2022-12-29T17:30:21.548Z,40.74
2022-12-29T17:33:09.100Z,42.54
2022-12-29T17:35:37.450Z,43.06
2022-12-29T17:38:16.711Z,42.80
2022-12-29T17:40:55.574Z,43.84
2022-12-29T17:43:26.570Z,43.57
2022-12-29T17:45:57.619Z,43.33
2022-12-29T17:48:27.908Z,43.33
2022-12-29T17:51:13.925Z,43.54
2022-12-29T17:53:52.264Z,43.68
2022-12-29T17:56:24.218Z,43.50
2022-12-29T17:59:00.413Z,43.44
2022-12-29T18:01:45.413Z,44.21
2022-12-29T18:04:15.233Z,43.91
2022-12-29T18:06:45.338Z,43.68
2022-12-29T18:12:24.825Z,43.50
2022-12-29T18:15:00.202Z,43.64
2022-12-29T18:17:35.514Z,43.44
2022-12-29T18:20:08.802Z,43.65
2022-12-29T18:22:43.536Z,44.00
2022-12-29T18:28:22.383Z,44.07
2022-12-29T18:30:49.745Z,44.91
2022-12-29T18:33:24.112Z,45.54
2022-12-29T18:36:06.879Z,44.84
2022-12-29T18:38:41.921Z,44.08
2022-12-29T18:41:23.793Z,43.73
2022-12-29T18:43:54.099Z,44.08
2022-12-29T18:46:30.954Z,43.78
2022-12-29T18:49:10.755Z,43.91
2022-12-29T18:54:43.173Z,43.53
2022-12-29T18:57:16.841Z,43.62
2022-12-29T18:59:45.052Z,43.30
2022-12-29T19:02:44.255Z,43.48
2022-12-29T19:05:26.118Z,43.28
2022-12-29T19:07:58.003Z,42.84
2022-12-29T19:10:41.543Z,42.86
2022-12-29T19:13:24.539Z,43.08
2022-12-29T19:16:00.946Z,42.64
2022-12-29T19:18:53.271Z,42.83
2022-12-29T19:21:31.058Z,42.02
2022-12-29T19:24:04.981Z,42.03
2022-12-29T19:26:52.358Z,41.85
2022-12-29T19:29:25.121Z,41.58
2022-12-29T19:31:57.739Z,41.63
2022-12-29T19:34:43.458Z,42.09
2022-12-29T19:37:13.265Z,41.71
2022-12-29T19:39:49.082Z,42.70
2022-12-29T19:42:17.129Z,42.09
2022-12-29T19:44:52.010Z,42.27
2022-12-29T19:47:34.063Z,42.28
2022-12-29T19:50:04.539Z,42.18
2022-12-29T19:52:36.902Z,42.17
2022-12-29T19:55:04.444Z,42.03
2022-12-29T19:57:41.269Z,41.92
2022-12-29T20:00:16.664Z,41.28
2022-12-29T20:02:49.650Z,41.35
2022-12-29T20:05:20.014Z,41.08
2022-12-29T20:07:49.695Z,41.18
2022-12-29T20:10:17.210Z,41.11
2022-12-29T20:13:03.271Z,41.10
2022-12-29T20:15:32.935Z,40.94
2022-12-29T20:18:15.501Z,40.84
2022-12-29T20:20:48.169Z,40.53
2022-12-29T20:23:20.456Z,40.79
2022-12-29T20:25:54.123Z,40.67
2022-12-29T20:28:24.538Z,41.01
2022-12-29T20:31:17.345Z,40.77
2022-12-29T20:33:48.549Z,40.68
2022-12-29T20:36:19.203Z,40.28
2022-12-29T20:38:56.480Z,40.47
2022-12-29T20:41:34.974Z,40.49
2022-12-29T20:44:06.730Z,40.64
2022-12-29T20:46:43.546Z,40.63
2022-12-29T20:49:17.245Z,40.58
2022-12-29T20:54:39.728Z,40.49
2022-12-29T20:57:13.507Z,40.36
2022-12-29T20:59:51.893Z,40.05
2022-12-29T21:02:26.206Z,40.48
2022-12-29T21:07:58.925Z,40.70
2022-12-29T21:10:29.214Z,40.80
2022-12-29T21:13:02.188Z,40.95
2022-12-29T21:15:37.164Z,40.79
2022-12-29T21:18:04.302Z,40.47
2022-12-29T21:20:34.310Z,40.17
2022-12-29T21:23:03.828Z,40.11
2022-12-29T21:25:37.546Z,40.30
2022-12-29T21:28:12.487Z,40.28
2022-12-29T21:33:29.124Z,40.16
2022-12-29T21:36:03.813Z,39.78
2022-12-29T21:38:43.147Z,39.75
2022-12-29T21:41:20.208Z,39.42
2022-12-29T21:44:08.093Z,39.61
2022-12-29T21:46:44.615Z,39.59
2022-12-29T21:49:17.562Z,39.25
2022-12-29T21:51:58.608Z,40.13
2022-12-29T21:54:51.945Z,40.03
2022-12-29T21:57:45.313Z,39.39
2022-12-29T22:00:33.946Z,39.55
2022-12-29T22:03:23.817Z,39.31
2022-12-29T22:06:32.899Z,39.23
2022-12-29T22:09:26.802Z,39.17
2022-12-29T22:12:26.511Z,39.71
2022-12-29T22:15:02.385Z,39.96
2022-12-29T22:20:15.039Z,39.94
2022-12-29T22:22:53.743Z,39.96
2022-12-29T22:28:09.812Z,40.02
2022-12-29T22:33:34.728Z,40.13
2022-12-29T22:36:20.995Z,40.08
2022-12-29T22:38:50.375Z,40.35
2022-12-29T22:41:24.373Z,40.90
2022-12-29T22:44:02.230Z,40.92
2022-12-29T22:46:34.907Z,40.71
2022-12-29T22:49:07.820Z,40.67
2022-12-29T22:51:34.980Z,40.88
2022-12-29T22:54:16.274Z,40.95
2022-12-29T22:56:46.710Z,40.85
2022-12-29T22:59:20.657Z,41.17
2022-12-29T23:02:17.849Z,41.12
2022-12-29T23:05:13.547Z,41.16
2022-12-29T23:07:50.924Z,40.96
2022-12-29T23:10:27.913Z,41.06
2022-12-29T23:12:57.241Z,41.16
2022-12-29T23:15:33.626Z,41.20
2022-12-29T23:18:11.143Z,41.45
2022-12-29T23:20:49.633Z,41.74
2022-12-29T23:23:49.132Z,41.66
2022-12-29T23:26:21.237Z,41.50
2022-12-29T23:28:48.517Z,41.61
2022-12-29T23:31:20.732Z,41.60
2022-12-29T23:33:51.898Z,41.88
2022-12-29T23:39:18.614Z,41.72
2022-12-29T23:41:46.643Z,41.55
2022-12-29T23:44:13.806Z,42.17
2022-12-29T23:46:41.316Z,42.35
2022-12-29T23:49:14.025Z,42.10
2022-12-29T23:51:55.077Z,41.99
2022-12-29T23:54:26.980Z,42.12
2022-12-29T23:56:54.249Z,41.83
